Extreme weather reports worldwide

High gusts

Station
 
Location
 
Name
 
Wind
Knots
Gust
Knots
Vis
SM
Temp/Dew
C
Baro
inHg
METAR
 
MPN EGYP Mount Pleasant, FK Mount Pleasant Airport 35 45 6.21 10/9 29.65 EGYP 190150Z 35035G45KT 9999 -DZ BKN005 10/09 Q1004
KRVF 33 40 10 3/-5 30.03 KRVF 190235Z AUTO 01033G40KT 10SM CLR 03/M05 A3003 RMK AO2
KSZT Sandpoint, US Sandpoint Airport 24 40 10 6/1 30.19 KSZT 190235Z AUTO 02024G40KT 10SM DZ OVC033 06/01 A3019 RMK AO2
CWNM 26 39 8/1 CWNM 190200Z AUTO 02026G39KT 08/01 RMK AO1 PRESRR PK WND 03043/0112 SLP245 T00810011 53074
WKJ RJCW Wakkanai, JP Wakkanai Airport 28 38 3.73 4/3 29.20 RJCW 190200Z 30028G38KT 6000 -SHRA FEW009 BKN010 BKN020 04/03 Q0989

Station
 
Location
 
Name
 
Wind
Knots
Gust
Knots
Vis
SM
Temp/Dew
C
Baro
inHg
METAR
 
KQDG 23 37 6.21 12/2 29.55 KQDG 190156Z AUTO 27023G37KT 9999 FEW043 12/03 A2955 RMK AO2 PK WND 26037/51 SLP009 T01230028 $
SDJ RJSS Sendai, JP Sendai Airport 19 37 6.21 16/-1 29.70 RJSS 190200Z 29019G37KT 9999 FEW030 BKN050 16/M01 Q1006
KEJ UNEE Kemerovo, RU Kemerovo Airport 25 37 4.97 -7/-11 29.65 UNEE 190230Z 28013G19MPS 8000 -SHSN BKN024CB M07/M11 Q1004 R23/690345 NOSIG RMK QFE730
KU68 16 36 10 5/0 30.04 KU68 190235Z AUTO 02016G36KT 10SM BKN100 OVC110 05/00 A3004 RMK AO2
MHE KMHE Mitchell, US Mitchell Municipal Airport 23 34 10 4/-1 30.02 KMHE 190153Z AUTO 01023G34KT 10SM OVC021 04/M01 A3002 RMK AO2 PK WND 01034/0142 SLP175 T00441011 $
SPW KSPW Spencer, US Spencer Municipal Airport 23 34 10 8/1 29.86 KSPW 190153Z AUTO 36023G34KT 10SM FEW090 OVC110 09/01 A2986 RMK AO2 PK WND 36034/0151 WSHFT 0041 SLP114 T00890011 $
COE KCOE Coeur d'Alene, US Coeur D'Alene - Pappy Boyington Field 29 34 7 17/1 29.97 KCOE 190156Z AUTO 04029G34KT 7SM SCT110 18/02 A2997 RMK AO2 PK WND 04034/0154 SLP163 T01780017
AOJ RJSA Aomori, JP Aomori Airport 22 34 6.21 11/3 29.59 RJSA 190200Z 26022G34KT 9999 FEW030 BKN050 11/03 Q1002
AXT RJSK Akita, JP Akita Airport 23 34 6.21 12/5 29.70 RJSK 190200Z 27023G34KT 9999 FEW010 BKN020 12/05 Q1006
OMK KOMK Omak, US Omak Airport 24 33 10 22/0 29.98 KOMK 190153Z AUTO 36024G33KT 10SM CLR 23/00 A2998 RMK AO2 PK WND 36036/0123 SLP149 T02280000
MSJ RJSM Misawa, JP Misawa Air Base 23 33 6.21 14/3 29.56 RJSM 190200Z 28023G33KT 9999 FEW020 BKN030 14/03 Q1001
K8D3 18 32 0/-6 30.06 K8D3 190156Z AUTO 35018G32KT 00/M06 A3006 RMK AO1 PK WND 35033/0142 SLP190 T00001061 $
YKN KYKN Yankton, US Chan Gurney Municipal Airport 22 32 10 9/1 29.92 KYKN 190156Z AUTO 34022G32KT 10SM BKN110 09/02 A2992 RMK AO2 PK WND 36032/0152 PRESRR SLP150 T00940017
KIJ RJSN Niigata, JP Niigata Airport 21 32 6.21 13/8 29.85 RJSN 190201Z 24021G32KT 9999 FEW020 SCT040 BKN060 13/08 Q1011 RMK 1CU020 3CU040 5CU060 A2987
FFM KFFM Fergus Falls, US Fergus Falls Municipal Airport - Einar Mickelson Field 24 32 10 -2/-6 30.00 KFFM 190235Z AUTO 34024G32KT 10SM OVC029 M02/M06 A3000 RMK AO2
OCN KOKB Oceanside, US Oceanside Municipal Airport 21 31 10 25/-2 29.91 KOKB 190152Z AUTO 30021G31KT 10SM CLR 25/M03 A2991 RMK AO2 PK WND 30031/0144 SLP128 T02501028
GFK KGFK Grand Forks, US Grand Forks International Airport 21 31 10 -1/-8 30.12 KGFK 190153Z 36021G31KT 10SM OVC032 M02/M08 A3012 RMK AO2 PK WND 36031/0151 SLP211 T10171083 $
HBA YMHB Hobart, AU Hobart International Airport 20 31 6.21 19/6 29.68 YMHB 190230Z 32020G31KT 9999 FEW042 BKN260 19/06 Q1005 RF00/0/000/0
KMJQ Jackson, US Jackson Municipal Airport 22 31 10 4/0 29.92 KMJQ 190235Z AUTO 34022G31KT 10SM SCT060 SCT070 OVC080 04/00 A2992 RMK AO2
KODX Ord, US Evelyn Sharp Field 19 31 10 11/1 29.92 KODX 190239Z AUTO 36019G31KT 10SM SCT100 12/02 A2992 RMK AO2 PK WND 01031/0230 WSHFT 0219 T01170017
EST KEST Estherville, US Estherville Municipal Airport 23 30 10 7/1 29.86 KEST 190152Z AUTO 35023G30KT 10SM OVC100 07/01 A2986 RMK AO2 PK WND 35030/0151 SLP116 T00720011
KSXK Maurice, US Sioux County Regional Airport 25 30 10 7/2 29.88 KSXK 190215Z AUTO 02025G30KT 10SM BKN075 BKN085 OVC110 07/02 A2988 RMK AO2
LRJ KLRJ Le Mars, US Le Mars Municipal Airport 22 30 10 8/2 29.88 KLRJ 190235Z AUTO 02022G30KT 10SM FEW055 SCT070 BKN080 08/02 A2988 RMK AO2
KMWM Windom, US Windom Municipal Airport 23 30 10 3/-1 29.93 KMWM 190235Z AUTO 32023G30KT 10SM BKN017 03/M01 A2993 RMK AO2
SAD KSAD Safford, US Safford Regional Airport 20 29 10 17/2 29.96 KSAD 190151Z AUTO 06020G29KT 10SM BKN090 BKN110 18/02 A2996 RMK AO2 PK WND 07031/0141 SLP118 T01780022
XPR KIEN Pine Ridge, US Pine Ridge Airport 17 29 10 9/0 29.98 KIEN 190152Z AUTO 04017G29KT 10SM FEW060 09/00 A2998 RMK AO2 PK WND 04029/0140 RAB12E25 SLP160 P0000 T00940000
VTN KVTN Valentine, US Miller Field 21 29 10 7/0 30.00 KVTN 190152Z AUTO 03021G29KT 10SM BKN095 BKN120 08/00 A3000 RMK AO2 PK WND 02034/0115 SLP171 T00780000
ATY KATY Watertown, US Watertown Regional Airport 20 29 10 0/-3 30.01 KATY 190153Z AUTO 35020G29KT 10SM OVC017 00/M04 A3001 RMK AO2 PK WND 36031/0118 SLP177 T00001039
MSO KMSO Missoula, US Missoula International Airport 18 29 10 11/0 30.05 KMSO 190153Z 06018G29KT 10SM OVC100 12/00 A3005 RMK AO2 PK WND 05030/0128 WSHFT 0120 PRESRR SLP184 T01170000
PIR KPIR Pierre, US Pierre Regional Airport 21 29 10 2/-5 30.07 KPIR 190153Z AUTO 02021G29KT 10SM SCT075 BKN090 OVC110 02/M05 A3007 RMK AO2 PK WND 02030/0140 SLP195 T00221050
FSD KFSD Sioux Falls, US Joe Foss Field Airport 21 29 10 5/-1 29.95 KFSD 190156Z 01021G29KT 10SM FEW022 OVC090 05/M01 A2995 RMK AO2 PK WND 01033/0146 SLP149 T00501011
CWKK 23 29 0/-2 CWKK 190200Z AUTO 01023G29KT 01/M02 RMK AO1 3PAST HR 3020 PK WND 02029/0158 SLP088 P0001 T00051022 50005
HIB KHIB Hibbing, US Range Regional Airport 16 29 2.5 0/-2 29.85 KHIB 190212Z AUTO 33016G29KT 2 1/2SM -SN BR FEW014 BKN019 OVC033 M01/M02 A2985 RMK AO2 PK WND 33029/0203 P0000 T10061022
YHZ CYHZ Halifax, CA Halifax / Stanfield International Airport 20 29 15 2/1 29.57 CYHZ 190213Z 32020G29KT 15SM -RA OVC012 02/01 A2957 RMK SC8 SLP019
XMD KMDS Madison, US Madison Municipal Airport 22 29 10 1/0 29.99 KMDS 190215Z AUTO 01022G29KT 10SM OVC016 01/00 A2999 RMK AO2
KOTG Worthington, US Worthington Municipal Airport 22 29 10 3/0 29.93 KOTG 190218Z AUTO 35022G29KT 10SM -RA BKN015 BKN055 OVC075 03/00 A2993 RMK AO2 PK WND 34033/0200 RAB08 P0000
NSL KDVP Slayton, US Slayton Municipal Airport 23 29 10 1/-1 29.95 KDVP 190233Z AUTO 34023G29KT 10SM OVC012 01/M01 A2995 RMK AO2 T00121015
K2D5 18 29 10 -2/-8 30.12 K2D5 190235Z AUTO 36018G29KT 10SM OVC034 M02/M08 A3012 RMK AO2
KJKJ Moorhead, US Moorhead Municipal Airport 23 29 10 -1/-8 30.10 KJKJ 190235Z AUTO 36023G29KT 10SM CLR M01/M08 A3010 RMK AO2
MDF KMDZ Medford, US Taylor County Airport 19 29 10 8/3 29.72 KMDZ 190235Z AUTO 29019G29KT 10SM SCT065 BKN080 OVC110 08/03 A2972 RMK AO2 T00830030
KMOX Morris, US Morris Municipal - Charlie Schmidt Airport 24 29 10 -1/-6 30.02 KMOX 190235Z AUTO 34024G29KT 10SM SCT029 M01/M06 A3002 RMK AO2
KSHL Sheldon, US Sheldon Regional Airport 18 29 10 5/1 29.90 KSHL 190235Z AUTO 01018G29KT 10SM -UP SCT045 BKN050 OVC075 05/01 A2990 RMK AO2
KVVV Ortonville, US Ortonville Municipal Martinson Field 22 29 10 -1/-5 30.05 KVVV 190235Z AUTO 34022G29KT 10SM OVC023 M01/M05 A3005 RMK AO2
DLN KDLN Dillon, US Dillon Airport 20 28 10 7/-2 30.00 KDLN 190153Z AUTO 06020G28KT 10SM BKN100 BKN120 07/M03 A3000 RMK AO2 PK WND 06028/0149 WSHFT 0119 SLP161 T00721028
RWF KRWF Redwood Falls, US Redwood Falls Municipal Airport 16 28 10 4/0 29.92 KRWF 190153Z AUTO 33016G28KT 10SM OVC017 04/00 A2992 RMK AO2 PK WND 34028/0153 SLP139 T00440000